Time;durP1;ratioP1;P1;durP2;ratioP2;P2;SDS_P1;SDS_P2;PMS_P1;PMS_P2;Temp;Humidity;BMP_temperature;BMP_pressure;BME280_temperature;BME280_humidity;BME280_pressure;Samples;Min_cycle;Max_cycle;Signal;HPM_P1;HPM_P2
2024/01/10 00:00:00;;;;;;;9.95;4.13;;;;;;;;;;5021945;28;20555;-81
2024/01/10 00:02:26;;;;;;;6.70;4.20;;;;;;;;;;5017152;28;21530;-81
2024/01/10 00:04:52;;;;;;;14.90;7.00;;;;;;;;;;5054598;28;20087;-82
2024/01/10 00:07:18;;;;;;;10.57;5.70;;;;;;;;;;5017333;28;20025;-81
2024/01/10 00:09:45;;;;;;;7.00;4.30;;;;;;;;;;5053562;28;20103;-81
2024/01/10 00:12:11;;;;;;;7.13;4.28;;;;;;;;;;5017843;28;20030;-81
2024/01/10 00:14:37;;;;;;;13.82;4.57;;;;;;;;;;5018140;28;20379;-80
2024/01/10 00:17:03;;;;;;;11.80;3.92;;;;;;;;;;5026320;28;20076;-82
2024/01/10 00:19:29;;;;;;;11.77;5.28;;;;;;;;;;5018870;28;20094;-80
2024/01/10 00:21:55;;;;;;;11.48;5.97;;;;;;;;;;5024857;28;20030;-80
2024/01/10 00:24:22;;;;;;;12.23;6.10;;;;;;;;;;5002765;28;20044;-81
2024/01/10 00:26:48;;;;;;;10.90;4.88;;;;;;;;;;5013686;28;20110;-81
2024/01/10 00:29:14;;;;;;;14.27;6.70;;;;;;;;;;5017903;28;20041;-81
2024/01/10 00:31:40;;;;;;;16.38;7.68;;;;;;;;;;5004346;28;20046;-80
2024/01/10 00:34:06;;;;;;;9.98;5.20;;;;;;;;;;5013231;28;20404;-78
2024/01/10 00:36:32;;;;;;;15.85;7.47;;;;;;;;;;5047602;28;20026;-81
2024/01/10 00:38:58;;;;;;;20.88;9.10;;;;;;;;;;5017724;28;20037;-81
2024/01/10 00:41:24;;;;;;;15.45;7.10;;;;;;;;;;5022245;28;20049;-82
2024/01/10 00:43:50;;;;;;;12.25;6.30;;;;;;;;;;5051541;28;20629;-81
2024/01/10 00:46:16;;;;;;;18.77;6.25;;;;;;;;;;5024442;28;20098;-81
2024/01/10 00:48:42;;;;;;;14.02;6.20;;;;;;;;;;5023268;28;20033;-82
2024/01/10 00:51:08;;;;;;;10.38;5.93;;;;;;;;;;5048566;28;20196;-80
2024/01/10 00:53:38;;;;;;;11.48;5.30;;;;;;;;;;5021588;28;20050;-78
2024/01/10 00:56:05;;;;;;;12.88;6.38;;;;;;;;;;5020045;28;20503;-81
2024/01/10 00:58:31;;;;;;;11.73;5.72;;;;;;;;;;5016210;28;20060;-80
2024/01/10 01:00:57;;;;;;;6.93;4.35;;;;;;;;;;5045600;28;20099;-80
2024/01/10 01:03:23;;;;;;;10.40;6.15;;;;;;;;;;5019659;28;20154;-79
2024/01/10 01:05:48;;;;;;;9.68;4.72;;;;;;;;;;5024525;28;20329;-82
2024/01/10 01:08:14;;;;;;;7.20;4.68;;;;;;;;;;5018420;28;20411;-78
2024/01/10 01:10:40;;;;;;;7.72;5.20;;;;;;;;;;5025357;28;21427;-82
2024/01/10 01:13:07;;;;;;;14.15;6.57;;;;;;;;;;5026466;28;20412;-81
2024/01/10 01:15:33;;;;;;;5.05;4.00;;;;;;;;;;5025291;28;20026;-79
2024/01/10 01:17:58;;;;;;;12.73;6.00;;;;;;;;;;5020384;28;20056;-81
2024/01/10 01:20:24;;;;;;;9.13;4.75;;;;;;;;;;5029248;28;20033;-84
2024/01/10 01:22:50;;;;;;;14.00;7.20;;;;;;;;;;5025369;28;20643;-81
2024/01/10 01:25:16;;;;;;;15.20;8.10;;;;;;;;;;5029789;28;20427;-80
2024/01/10 01:27:42;;;;;;;14.85;5.47;;;;;;;;;;5022924;28;20029;-81
2024/01/10 01:30:11;;;;;;;9.20;4.32;;;;;;;;;;5027312;28;20488;-81
2024/01/10 01:32:37;;;;;;;8.02;4.32;;;;;;;;;;5025582;28;20027;-83
2024/01/10 01:35:03;;;;;;;8.73;4.55;;;;;;;;;;5019232;28;20031;-80
2024/01/10 01:37:29;;;;;;;7.93;5.00;;;;;;;;;;5019491;28;20472;-81
2024/01/10 01:39:55;;;;;;;9.93;4.90;;;;;;;;;;5024981;28;20048;-81
2024/01/10 01:42:21;;;;;;;7.55;4.60;;;;;;;;;;5023131;28;20033;-83
2024/01/10 01:44:47;;;;;;;9.07;3.58;;;;;;;;;;5024020;28;20026;-81
2024/01/10 01:47:13;;;;;;;8.18;5.10;;;;;;;;;;5025810;28;20029;-82
2024/01/10 01:49:39;;;;;;;13.02;5.45;;;;;;;;;;5024436;28;20026;-82
2024/01/10 01:52:06;;;;;;;9.07;4.22;;;;;;;;;;5025931;28;21424;-77
2024/01/10 01:54:33;;;;;;;8.90;4.13;;;-5.10;99.90;;;;;;5021993;28;20024;-80
2024/01/10 01:57:00;;;;;;;7.70;4.75;;;;;;;;;;5052570;28;20467;-80
2024/01/10 01:59:27;;;;;;;12.55;4.80;;;;;;;;;;5025296;28;20162;-80
2024/01/10 02:01:55;;;;;;;15.73;4.90;;;;;;;;;;5017031;28;20124;-80
2024/01/10 02:04:21;;;;;;;6.72;3.55;;;;;;;;;;5015208;28;20032;-81
2024/01/10 02:06:47;;;;;;;12.20;5.68;;;;;;;;;;5024032;28;20366;-80
2024/01/10 02:09:13;;;;;;;13.30;4.70;;;;;;;;;;4997688;28;20041;-82
2024/01/10 02:11:39;;;;;;;9.43;5.05;;;;;;;;;;5022937;28;20064;-79
2024/01/10 02:14:06;;;;;;;7.05;3.75;;;;;;;;;;5020079;28;20061;-80
2024/01/10 02:16:32;;;;;;;6.97;3.58;;;;;;;;;;5014485;28;20022;-80
2024/01/10 02:18:58;;;;;;;7.47;4.32;;;;;;;;;;5024822;28;20454;-80
2024/01/10 02:21:24;;;;;;;14.55;5.32;;;;;;;;;;5020565;28;20093;-79
2024/01/10 02:23:50;;;;;;;13.68;6.57;;;;;;;;;;5020705;28;20148;-81
2024/01/10 02:26:16;;;;;;;5.78;3.42;;;;;;;;;;5024229;28;20021;-80
2024/01/10 02:28:42;;;;;;;10.82;5.20;;;;;;;;;;5025068;28;20488;-81
2024/01/10 02:31:08;;;;;;;7.57;5.38;;;;;;;;;;5023392;28;20076;-81
2024/01/10 02:33:34;;;;;;;8.90;6.40;;;;;;;;;;5019203;28;20490;-80
2024/01/10 02:36:00;;;;;;;10.20;3.95;;;;;;;;;;5024819;28;20025;-80
2024/01/10 02:38:26;;;;;;;12.27;5.70;;;;;;;;;;5020993;28;20088;-82
2024/01/10 02:40:53;;;;;;;17.35;5.95;;;;;;;;;;5024304;28;20091;-80
2024/01/10 02:43:19;;;;;;;20.35;7.18;;;;;;;;;;5052720;28;20041;-81
2024/01/10 02:45:45;;;;;;;9.00;6.93;;;;;;;;;;5053667;28;20047;-78
2024/01/10 02:48:11;;;;;;;14.15;5.20;;;;;;;;;;5021554;28;20123;-80
2024/01/10 02:50:38;;;;;;;15.38;7.82;;;;;;;;;;5020065;28;20025;-79
2024/01/10 02:53:05;;;;;;;17.67;7.18;;;;;;;;;;5018154;28;20516;-81
2024/01/10 02:55:31;;;;;;;16.52;6.20;;;;;;;;;;5022576;28;20033;-84
2024/01/10 02:57:57;;;;;;;30.55;7.88;;;;;;;;;;5022526;28;20034;-79
2024/01/10 03:00:23;;;;;;;17.25;8.27;;;;;;;;;;5007210;28;20063;-82
2024/01/10 03:02:49;;;;;;;6.95;4.22;;;;;;;;;;5020534;28;20032;-81
2024/01/10 03:05:15;;;;;;;7.82;5.03;;;;;;;;;;5021556;28;20076;-80
2024/01/10 03:07:41;;;;;;;12.07;4.90;;;;;;;;;;5020445;28;20042;-80
2024/01/10 03:10:10;;;;;;;5.28;3.45;;;;;;;;;;5022200;28;20034;-81
2024/01/10 03:12:37;;;;;;;8.32;3.72;;;;;;;;;;5020874;28;20029;-80
2024/01/10 03:15:04;;;;;;;14.20;6.63;;;;;;;;;;5024549;28;20021;-79
2024/01/10 03:17:33;;;;;;;8.95;3.97;;;;;;;;;;5028765;28;20040;-82
2024/01/10 03:19:59;;;;;;;10.52;5.45;;;;;;;;;;5021198;28;20499;-80
2024/01/10 03:22:25;;;;;;;7.40;4.20;;;;;;;;;;5020712;28;20434;-81
2024/01/10 03:24:51;;;;;;;14.02;4.75;;;;;;;;;;5023813;28;20020;-82
2024/01/10 03:27:17;;;;;;;12.88;3.20;;;;;;;;;;5016382;28;20021;-81
2024/01/10 03:29:43;;;;;;;4.78;3.17;;;;;;;;;;5027301;28;20030;-80
2024/01/10 03:32:15;;;;;;;9.13;4.55;;;;;;;;;;5012532;28;20113;-82
2024/01/10 03:34:42;;;;;;;8.70;3.77;;;;;;;;;;5016493;28;20021;-81
2024/01/10 03:37:08;;;;;;;9.95;4.88;;;;;;;;;;5020198;28;20284;-80
2024/01/10 03:39:34;;;;;;;7.30;3.85;;;;;;;;;;5022370;28;20040;-80
2024/01/10 03:42:00;;;;;;;8.32;3.60;;;;;;;;;;5024975;28;20029;-81
2024/01/10 03:44:27;;;;;;;8.70;4.55;;;;;;;;;;5020172;28;20072;-78
2024/01/10 03:46:53;;;;;;;8.23;4.93;;;;;;;;;;5052746;28;20034;-80
2024/01/10 03:49:19;;;;;;;8.00;4.85;;;;;;;;;;5021361;28;20022;-83
2024/01/10 03:51:45;;;;;;;10.57;5.30;;;;;;;;;;5024265;28;20033;-81
2024/01/10 03:54:11;;;;;;;18.77;4.47;;;;;;;;;;5018349;28;20025;-82
2024/01/10 03:56:37;;;;;;;9.90;4.57;;;;;;;;;;5020226;28;20026;-81
2024/01/10 03:59:03;;;;;;;16.30;6.18;;;;;;;;;;5018248;28;20104;-80
2024/01/10 04:01:29;;;;;;;14.63;5.20;;;;;;;;;;5024042;28;20389;-81
2024/01/10 04:03:55;;;;;;;8.07;3.90;;;;;;;;;;5016548;28;20124;-80
2024/01/10 04:06:21;;;;;;;17.63;4.60;;;;;;;;;;5006332;28;20470;-80
2024/01/10 04:08:47;;;;;;;12.85;4.30;;;;;;;;;;5023269;28;20064;-80
2024/01/10 04:11:13;;;;;;;13.77;5.05;;;;;;;;;;5020549;28;20529;-80
2024/01/10 04:13:41;;;;;;;12.40;4.55;;;;;;;;;;5018494;28;20025;-80
2024/01/10 04:16:07;;;;;;;5.93;3.85;;;;;;;;;;5022099;28;20021;-80
2024/01/10 04:18:33;;;;;;;10.32;4.47;;;;;;;;;;5015312;28;20051;-81
2024/01/10 04:20:59;;;;;;;12.25;6.03;;;;;;;;;;5021683;28;20040;-81
2024/01/10 04:23:25;;;;;;;11.65;4.50;;;;;;;;;;5021911;28;20030;-82
2024/01/10 04:25:51;;;;;;;12.00;5.95;;;;;;;;;;5018244;28;20041;-81
2024/01/10 04:28:17;;;;;;;15.57;6.93;;;;;;;;;;5014830;28;20037;-83
2024/01/10 04:30:43;;;;;;;11.35;4.97;;;;;;;;;;5021753;28;20108;-81
2024/01/10 04:33:09;;;;;;;8.00;3.78;;;;;;;;;;5019104;28;20024;-82
2024/01/10 04:35:35;;;;;;;10.23;5.45;;;;;;;;;;5024604;28;20033;-80
2024/01/10 04:38:01;;;;;;;8.32;3.88;;;;;;;;;;5024139;28;20029;-81
2024/01/10 04:40:27;;;;;;;13.27;5.97;;;;;;;;;;5017422;28;20124;-81
2024/01/10 04:42:53;;;;;;;10.50;4.00;;;;;;;;;;5023213;28;20038;-81
2024/01/10 04:45:19;;;;;;;15.60;4.45;;;;;;;;;;5017768;28;20256;-81
2024/01/10 04:47:45;;;;;;;10.00;5.65;;;;;;;;;;5024291;28;20033;-80
2024/01/10 04:50:11;;;;;;;17.13;6.43;;;;;;;;;;5028544;28;20044;-82
2024/01/10 04:52:37;;;;;;;5.25;3.95;;;;;;;;;;5029297;28;20025;-80
2024/01/10 04:55:05;;;;;;;14.63;6.47;;;;;;;;;;5029887;28;20365;-80
2024/01/10 04:57:31;;;;;;;10.68;4.65;;;;;;;;;;5025444;28;20500;-81
2024/01/10 04:59:58;;;;;;;7.40;4.10;;;;;;;;;;5030253;28;20060;-80
2024/01/10 05:02:24;;;;;;;7.60;3.75;;;;;;;;;;5022810;28;20021;-81
2024/01/10 05:04:50;;;;;;;9.20;5.13;;;;;;;;;;5027799;28;20037;-81
2024/01/10 05:07:16;;;;;;;7.93;4.78;;;;;;;;;;5024716;28;20374;-82
2024/01/10 05:09:42;;;;;;;13.25;4.97;;;;;;;;;;5034111;28;20554;-82
2024/01/10 05:12:08;;;;;;;13.00;4.93;;;;;;;;;;5037136;28;20500;-81
2024/01/10 05:14:34;;;;;;;12.25;4.70;;;;;;;;;;5030832;28;20069;-81
2024/01/10 05:17:00;;;;;;;11.50;5.15;;;;;;;;;;5029194;28;20056;-83
2024/01/10 05:19:26;;;;;;;13.00;5.88;;;;;;;;;;5036619;28;20029;-83
2024/01/10 05:21:52;;;;;;;5.07;3.78;;;;;;;;;;5035248;28;20034;-83
2024/01/10 05:24:19;;;;;;;12.35;4.22;;;;;;;;;;5027690;28;20365;-81
2024/01/10 05:26:45;;;;;;;9.93;5.10;;;;;;;;;;5030931;28;20032;-82
2024/01/10 05:29:11;;;;;;;10.02;4.20;;;;;;;;;;5027826;28;20034;-83
2024/01/10 05:31:37;;;;;;;7.18;4.60;;;;;;;;;;5028964;28;20035;-80
2024/01/10 05:34:05;;;;;;;12.43;5.45;;;;;;;;;;5026207;28;20399;-81
2024/01/10 05:36:31;;;;;;;5.55;3.80;;;;;;;;;;5027016;28;20029;-80
2024/01/10 05:38:57;;;;;;;8.38;3.00;;;;;;;;;;5031605;28;20053;-79
2024/01/10 05:41:24;;;;;;;9.82;4.85;;;;;;;;;;5034098;28;20647;-81
2024/01/10 05:43:50;;;;;;;14.13;5.28;;;;;;;;;;5024902;28;20094;-76
2024/01/10 05:46:16;;;;;;;9.65;6.25;;;;;;;;;;5058296;28;20548;-82
2024/01/10 05:48:42;;;;;;;15.57;7.30;;;;;;;;;;5018655;28;20404;-81
2024/01/10 05:51:08;;;;;;;12.73;5.75;;;;;;;;;;5025250;28;20439;-80
2024/01/10 05:53:34;;;;;;;15.43;7.40;;;;;;;;;;5023692;28;20419;-79
2024/01/10 05:56:00;;;;;;;17.92;8.45;;;;;;;;;;5026661;28;20503;-81
2024/01/10 05:58:26;;;;;;;23.58;10.02;;;;;;;;;;5019360;28;20032;-81
2024/01/10 06:00:52;;;;;;;9.57;6.18;;;;;;;;;;5040461;28;20029;-81
2024/01/10 06:03:21;;;;;;;11.95;5.68;;;;;;;;;;5029557;28;20091;-80
2024/01/10 06:05:47;;;;;;;21.02;6.20;;;;;;;;;;5025009;28;20025;-80
2024/01/10 06:08:14;;;;;;;13.60;5.50;;;;;;;;;;5019199;28;20037;-81
2024/01/10 06:10:40;;;;;;;13.73;6.93;;;;;;;;;;5027693;28;20472;-80
2024/01/10 06:13:05;;;;;;;11.52;6.25;;;;;;;;;;5024414;28;20029;-80
2024/01/10 06:15:31;;;;;;;10.48;5.57;;;;;;;;;;5023032;28;20025;-81
2024/01/10 06:17:58;;;;;;;8.98;5.68;;;;;;;;;;5024658;28;20516;-80
2024/01/10 06:20:24;;;;;;;6.43;3.80;;;;;;;;;;5026196;28;20028;-80
2024/01/10 06:22:50;;;;;;;7.80;3.53;;;;;;;;;;5019420;28;20021;-81
2024/01/10 06:25:16;;;;;;;14.15;5.82;;;;;;;;;;5021412;28;20046;-78
2024/01/10 06:27:42;;;;;;;7.40;3.70;;;;;;;;;;5020513;28;20029;-79
2024/01/10 06:30:09;;;;;;;11.02;6.03;;;;;;;;;;5014451;28;20021;-79
2024/01/10 06:32:35;;;;;;;12.55;6.03;;;;;;;;;;5023990;28;20036;-81
2024/01/10 06:35:01;;;;;;;8.82;5.68;;;;;;;;;;5056148;28;20033;-80
2024/01/10 06:37:28;;;;;;;8.10;5.97;;;;;;;;;;5021358;28;20179;-81
2024/01/10 06:39:54;;;;;;;6.25;3.42;;;;;;;;;;5020181;28;20021;-78
2024/01/10 06:42:20;;;;;;;10.82;5.32;;;;;;;;;;5008365;28;20404;-81
2024/01/10 06:44:46;;;;;;;12.10;6.13;;;;;;;;;;5013462;28;20404;-81
2024/01/10 06:47:12;;;;;;;10.95;5.68;;;;;;;;;;5016352;28;20106;-80
2024/01/10 06:49:38;;;;;;;8.77;4.40;;;;;;;;;;5019797;28;20036;-80
2024/01/10 06:52:06;;;;;;;10.90;5.80;;;;;;;;;;5021584;28;20036;-79
2024/01/10 06:54:32;;;;;;;11.13;5.78;;;;;;;;;;5005154;28;20025;-80
2024/01/10 06:57:03;;;;;;;9.80;5.10;;;;;;;;;;5016114;28;20037;-81
2024/01/10 06:59:29;;;;;;;25.27;5.22;;;;;;;;;;5028437;28;20083;-81
2024/01/10 07:01:59;;;;;;;9.30;5.60;;;;;;;;;;5030500;28;20530;-81
2024/01/10 07:04:27;;;;;;;9.88;4.70;;;;;;;;;;5027734;28;20022;-80
2024/01/10 07:06:53;;;;;;;21.13;5.85;;;;;;;;;;5027739;28;20033;-81
2024/01/10 07:09:19;;;;;;;10.68;5.03;;;;;;;;;;5024549;28;20029;-79
2024/01/10 07:11:49;;;;;;;6.85;3.95;;;;;;;;;;5023865;28;20038;-82
2024/01/10 07:14:18;;;;;;;12.85;5.07;;;;;;;;;;5023669;28;20079;-81
2024/01/10 07:16:45;;;;;;;7.75;4.00;;;;;;;;;;5016253;28;20059;-83
2024/01/10 07:19:15;;;;;;;5.63;3.67;;;;;;;;;;5027258;28;20025;-81
2024/01/10 07:21:41;;;;;;;11.02;4.95;;;;;;;;;;5020206;28;20034;-82
2024/01/10 07:24:11;;;;;;;6.65;3.88;;;;;;;;;;5014876;28;20030;-82
2024/01/10 07:26:38;;;;;;;7.05;4.78;;;;;;;;;;5049642;28;20036;-80
2024/01/10 07:29:08;;;;;;;16.55;4.43;;;;;;;;;;5015240;28;20038;-81
2024/01/10 07:31:34;;;;;;;10.52;4.45;;;;;;;;;;5013978;28;20188;-80
2024/01/10 07:34:00;;;;;;;15.00;5.63;;;;;;;;;;5011142;28;20032;-82
2024/01/10 07:36:33;;;;;;;15.10;6.32;;;;;;;;;;5025705;28;20494;-81
2024/01/10 07:38:59;;;;;;;9.02;4.65;;;;;;;;;;5015313;28;20031;-81
2024/01/10 07:41:25;;;;;;;8.38;4.38;;;;;;;;;;5030134;28;20041;-81
2024/01/10 07:43:51;;;;;;;13.68;6.10;;;;;;;;;;5012538;28;20380;-81
2024/01/10 07:46:17;;;;;;;9.52;4.68;;;;;;;;;;5016954;28;20033;-79
2024/01/10 07:48:45;;;;;;;9.27;5.65;;;;;;;;;;5014685;28;20512;-81
2024/01/10 07:51:11;;;;;;;6.93;3.97;;;;;;;;;;5018819;28;20037;-82
2024/01/10 07:53:38;;;;;;;9.13;4.05;;;;;;;;;;5018291;28;20025;-80
2024/01/10 07:56:04;;;;;;;15.93;5.13;;;;;;;;;;5020787;28;20674;-79
2024/01/10 07:58:30;;;;;;;7.55;4.60;;;;;;;;;;5019528;28;20075;-80
2024/01/10 08:00:58;;;;;;;10.88;4.85;;;;;;;;;;5017945;28;20143;-80
2024/01/10 08:03:25;;;;;;;13.70;5.38;;;;;;;;;;5007854;28;20462;-82
2024/01/10 08:05:52;;;;;;;11.32;5.05;;;;;;;;;;5024002;28;20025;-78
2024/01/10 08:08:18;;;;;;;8.70;4.20;;;;;;;;;;5039061;28;20523;-80
2024/01/10 08:10:44;;;;;;;8.75;4.15;;;;;;;;;;5018752;28;20025;-80
2024/01/10 08:13:11;;;;;;;12.70;4.65;;;;;;;;;;5024622;28;20056;-80
2024/01/10 08:15:37;;;;;;;9.75;4.80;;;;;;;;;;5007357;28;20029;-81
2024/01/10 08:18:03;;;;;;;9.32;3.35;;;;;;;;;;5023803;28;20742;-80
2024/01/10 08:20:29;;;;;;;9.20;5.03;;;;;;;;;;5029424;28;20059;-82
2024/01/10 08:22:55;;;;;;;8.75;4.97;;;;;;;;;;5021819;28;20022;-79
2024/01/10 08:25:22;;;;;;;15.43;7.75;;;;;;;;;;5028230;28;20546;-81
2024/01/10 08:27:48;;;;;;;11.77;5.78;;;;;;;;;;5023298;28;20033;-81
2024/01/10 08:30:15;;;;;;;10.43;5.30;;;;;;;;;;5029622;28;20114;-81
2024/01/10 08:32:41;;;;;;;8.15;5.00;;;;;;;;;;5025522;28;20069;-84
2024/01/10 08:35:08;;;;;;;11.73;4.70;;;;;;;;;;5017176;28;20669;-81
2024/01/10 08:37:34;;;;;;;11.18;4.10;;;;;;;;;;5020495;28;20144;-82
2024/01/10 08:40:06;;;;;;;12.57;5.88;;;;;;;;;;5024080;28;20052;-81
2024/01/10 08:42:32;;;;;;;10.52;6.63;;;;;;;;;;5018939;28;20373;-81
2024/01/10 08:45:00;;;;;;;10.02;5.07;;;;;;;;;;5023267;28;20507;-83
2024/01/10 08:47:26;;;;;;;11.48;5.15;;;;;;;;;;5023181;28;20095;-81
2024/01/10 08:49:52;;;;;;;9.55;5.55;;;;;;;;;;5036270;28;20024;-83
2024/01/10 08:52:18;;;;;;;13.18;7.00;;;;;;;;;;5021233;28;20481;-82
2024/01/10 08:54:44;;;;;;;14.52;5.65;;;;;;;;;;5019633;28;20480;-82
2024/01/10 08:57:11;;;;;;;16.92;6.80;;;;;;;;;;5022890;28;20029;-82
2024/01/10 08:59:37;;;;;;;13.93;6.50;;;;;;;;;;5020233;28;20029;-83
2024/01/10 09:02:03;;;;;;;11.07;5.50;;;;;;;;;;5024728;28;20476;-83
2024/01/10 09:04:29;;;;;;;12.43;6.63;;;;;;;;;;5037779;28;20021;-82
2024/01/10 09:06:55;;;;;;;13.18;7.57;;;;;;;;;;5025055;28;20036;-79
2024/01/10 09:09:21;;;;;;;21.13;7.18;;;;;;;;;;5014741;28;20036;-81
2024/01/10 09:11:50;;;;;;;15.38;5.35;;;;;;;;;;5024673;28;20728;-80
2024/01/10 09:14:16;;;;;;;12.82;5.57;;;;;;;;;;5025461;28;20030;-83
2024/01/10 09:16:43;;;;;;;20.85;7.85;;;;;;;;;;5041633;28;20025;-81
2024/01/10 09:19:10;;;;;;;21.25;8.15;;;;;;;;;;5021242;28;20029;-81
2024/01/10 09:21:36;;;;;;;12.02;6.07;;;;;;;;;;5023683;28;20030;-81
2024/01/10 09:24:08;;;;;;;23.90;6.40;;;;;;;;;;5020366;28;20116;-81
2024/01/10 09:26:34;;;;;;;17.77;7.05;;;;;;;;;;5026154;28;20026;-80
2024/01/10 09:29:00;;;;;;;11.32;6.32;;;;;;;;;;5010487;28;20037;-82
2024/01/10 09:31:26;;;;;;;17.17;7.80;;;;;;;;;;5022747;28;20030;-84
2024/01/10 09:36:20;;;;;;;32.72;13.48;;;;;;;;;;5055486;28;20127;-80
2024/01/10 09:38:46;;;;;;;19.67;7.63;;;;;;;;;;5069692;28;20449;-80
2024/01/10 09:41:13;;;;;;;18.05;5.65;;;;;;;;;;5068766;28;20474;-79
2024/01/10 09:43:39;;;;;;;14.20;5.65;;;;;;;;;;5060544;28;20027;-80
2024/01/10 09:46:07;;;;;;;16.27;6.32;;;;;;;;;;5082253;28;20111;-80
2024/01/10 09:48:33;;;;;;;13.80;6.25;;;;;;;;;;5080361;28;20458;-81
2024/01/10 09:50:59;;;;;;;17.08;6.57;;;;;;;;;;5060200;28;20559;-79
2024/01/10 09:53:32;;;;;;;9.52;5.53;;;;;;;;;;5073403;28;20043;-80
2024/01/10 09:55:59;;;;;;;13.40;6.65;;;;;;;;;;5074000;28;20031;-80
2024/01/10 09:58:25;;;;;;;16.23;7.50;;;;;;;;;;5081287;28;20016;-80
2024/01/10 10:00:52;;;;;;;18.02;6.72;;;;;;;;;;5058299;28;20024;-80
2024/01/10 10:03:18;;;;;;;20.27;6.50;;;;;;;;;;5079029;28;20082;-81
2024/01/10 10:05:45;;;;;;;14.88;8.63;;;;;;;;;;5080015;28;20032;-81
2024/01/10 10:08:12;;;;;;;16.08;5.97;;;-0.60;99.90;;;;;;5078857;28;20040;-80
2024/01/10 10:10:45;;;;;;;18.63;8.38;;;;;;;;;;5083221;28;20032;-81
2024/01/10 10:13:24;;;;;;;10.85;5.95;;;;;;;;;;5064171;28;20027;-80
2024/01/10 10:15:58;;;;;;;21.70;8.25;;;;;;;;;;5081155;28;20398;-80
2024/01/10 10:18:24;;;;;;;15.60;6.68;;;;;;;;;;5075587;28;20131;-80
2024/01/10 10:21:06;;;;;;;21.77;7.50;;;;;;;;;;5102098;28;20074;-80
2024/01/10 10:23:33;;;;;;;19.98;7.53;;;;;;;;;;5081607;28;20309;-81
2024/01/10 10:25:59;;;;;;;15.82;6.90;;;;;;;;;;5074275;28;20024;-81
2024/01/10 10:28:31;;;;;;;15.20;8.32;;;;;;;;;;5063083;28;20039;-81
2024/01/10 10:30:57;;;;;;;16.75;6.72;;;;;;;;;;5060264;28;20105;-81
2024/01/10 10:33:23;;;;;;;18.70;7.45;;;;;;;;;;5059458;28;20513;-81
2024/01/10 10:35:50;;;;;;;14.35;6.53;;;;;;;;;;5077335;28;20036;-81
2024/01/10 10:38:16;;;;;;;14.18;6.47;;;;;;;;;;5074746;28;20024;-81
2024/01/10 10:40:42;;;;;;;18.10;7.80;;;;;;;;;;5081501;28;20485;-81
2024/01/10 10:43:16;;;;;;;18.95;6.65;;;;;;;;;;5064448;28;20032;-81
2024/01/10 10:45:48;;;;;;;16.50;6.38;;;-0.10;99.90;;;;;;5059054;28;20421;-81
2024/01/10 10:48:17;;;;;;;15.95;7.07;;;;;;;;;;5066041;28;20271;-81
2024/01/10 10:50:48;;;;;;;23.63;9.20;;;;;;;;;;5085581;28;20569;-81
2024/01/10 10:53:14;;;;;;;16.80;7.43;;;;;;;;;;5065879;28;20512;-81
2024/01/10 10:55:41;;;;;;;20.80;7.85;;;;;;;;;;5081504;28;20098;-81
2024/01/10 10:58:08;;;;;;;15.63;6.50;;;;;;;;;;5070370;28;20027;-80
2024/01/10 11:00:35;;;;;;;20.80;7.07;;;;;;;;;;5087126;28;20027;-80
2024/01/10 11:03:02;;;;;;;15.63;6.38;;;;;;;;;;5076130;28;20047;-80
2024/01/10 11:05:29;;;;;;;15.30;7.35;;;;;;;;;;5083782;28;20093;-80
2024/01/10 11:07:56;;;;;;;17.30;7.25;;;;;;;;;;5046373;28;20538;-80
2024/01/10 11:10:26;;;;;;;23.25;7.93;;;;;;;;;;5061474;28;20028;-80
2024/01/10 11:13:02;;;;;;;20.45;8.45;;;;;;;;;;5059859;28;20112;-80
2024/01/10 11:15:31;;;;;;;16.20;7.95;;;;;;;;;;5082137;28;20477;-80
2024/01/10 11:18:01;;;;;;;20.23;7.70;;;;;;;;;;5077168;28;20111;-80
2024/01/10 11:20:34;;;;;;;17.70;6.07;;;;;;;;;;5073991;28;20040;-80
2024/01/10 11:23:00;;;;;;;;;;;;;;;;;;5064208;28;20179;-81
2024/01/10 11:25:30;;;;;;;21.13;6.97;;;;;;;;;;5063739;28;20021;-79
2024/01/10 11:27:56;;;;;;;24.70;8.32;;;;;;;;;;5079142;28;20078;-81
2024/01/10 11:30:41;;;;;;;17.30;7.47;;;0.30;99.90;;;;;;5065971;28;20481;-80
2024/01/10 11:33:20;;;;;;;17.02;8.45;;;;;;;;;;5082084;28;20015;-80
2024/01/10 11:36:04;;;;;;;14.30;7.28;;;;;;;;;;5081181;28;20286;-80
2024/01/10 11:38:31;;;;;;;15.32;7.95;;;;;;;;;;5080718;28;20036;-80
2024/01/10 11:40:57;;;;;;;19.25;8.85;;;;;;;;;;5061389;28;20024;-80
2024/01/10 11:43:23;;;;;;;16.20;8.00;;;;;;;;;;5083265;28;20031;-80
2024/01/10 11:45:53;;;;;;;21.00;9.93;;;;;;;;;;5064291;28;20032;-80
2024/01/10 11:48:28;;;;;;;20.30;8.90;;;;;;;;;;5075135;28;20490;-80
2024/01/10 11:50:55;;;;;;;29.08;10.40;;;;;;;;;;5083174;28;20032;-79
2024/01/10 11:53:40;;;;;;;18.52;7.55;;;;;;;;;;5062643;28;20021;-80
2024/01/10 11:56:11;;;;;;;23.92;10.13;;;;;;;;;;5080446;28;20059;-81
2024/01/10 11:58:52;;;;;;;21.20;9.48;;;;;;;;;;5045046;28;20028;-80
2024/01/10 12:01:19;;;;;;;21.85;8.57;;;;;;;;;;5079881;28;20418;-80
2024/01/10 12:03:46;;;;;;;23.30;8.70;;;;;;;;;;5076851;28;20032;-81
2024/01/10 12:06:12;;;;;;;17.48;9.30;;;;;;;;;;5082923;28;20518;-80
2024/01/10 12:08:38;;;;;;;16.90;8.20;;;;;;;;;;5075725;28;20032;-81
2024/01/10 12:11:04;;;;;;;24.38;8.85;;;;;;;;;;5061060;28;20183;-81
2024/01/10 12:13:32;;;;;;;21.42;7.60;;;;;;;;;;5082091;28;20104;-80
2024/01/10 12:15:58;;;;;;;26.35;10.25;;;;;;;;;;5077671;28;20031;-81
2024/01/10 12:18:24;;;;;;;29.75;11.75;;;;;;;;;;5076451;28;20039;-81
2024/01/10 12:20:50;;;;;;;19.20;9.52;;;;;;;;;;5082870;28;20126;-80
2024/01/10 12:23:16;;;;;;;23.38;10.73;;;;;;;;;;5056570;28;20123;-81
2024/01/10 12:25:42;;;;;;;31.08;12.05;;;;;;;;;;5051225;28;21808;-80
2024/01/10 12:28:08;;;;;;;24.05;10.48;;;;;;;;;;5056973;28;20046;-81
2024/01/10 12:30:34;;;;;;;21.95;9.70;;;;;;;;;;5052973;28;20035;-81
2024/01/10 12:33:01;;;;;;;25.90;12.18;;;;;;;;;;5072717;28;20032;-82
2024/01/10 12:35:28;;;;;;;25.80;11.30;;;;;;;;;;5072377;28;20035;-81
2024/01/10 12:37:57;;;;;;;30.00;12.82;;;;;;;;;;5059210;28;20031;-81
2024/01/10 12:40:23;;;;;;;21.50;11.23;;;;;;;;;;5073887;28;20270;-80
2024/01/10 12:42:49;;;;;;;19.60;10.55;;;;;;;;;;5076852;28;20628;-80
2024/01/10 12:45:25;;;;;;;26.02;11.48;;;;;;;;;;5059730;28;20073;-81
2024/01/10 12:47:54;;;;;;;26.25;12.25;;;;;;;;;;5065230;28;20040;-84
2024/01/10 12:50:20;;;;;;;27.40;10.02;;;;;;;;;;5100835;28;20032;-80
2024/01/10 12:52:48;;;;;;;20.20;11.35;;;;;;;;;;5081484;28;20032;-82
2024/01/10 12:55:14;;;;;;;23.40;11.32;;;;;;;;;;5081269;28;20063;-80
2024/01/10 12:57:40;;;;;;;23.30;9.10;;;;;;;;;;5062624;28;20063;-80
2024/01/10 13:00:08;;;;;;;31.65;10.85;;;;;;;;;;5081689;28;20478;-80
2024/01/10 13:02:36;;;;;;;31.13;11.40;;;;;;;;;;5079784;28;20036;-83
2024/01/10 13:05:03;;;;;;;32.80;11.55;;;;;;;;;;5078332;28;20024;-81
2024/01/10 13:07:31;;;;;;;28.48;12.88;;;;;;;;;;5058736;28;20055;-80
2024/01/10 13:09:57;;;;;;;21.70;10.68;;;;;;;;;;5086438;28;20103;-80
2024/01/10 13:12:23;;;;;;;23.88;8.95;;;;;;;;;;5083028;28;20031;-81
2024/01/10 13:14:49;;;;;;;23.95;10.25;;;;;;;;;;5063546;28;20016;-80
2024/01/10 13:17:16;;;;;;;21.02;11.15;;;;;;;;;;5064945;28;20028;-80
2024/01/10 13:19:45;;;;;;;29.88;12.73;;;;;;;;;;5064712;28;20025;-81
2024/01/10 13:22:13;;;;;;;27.55;11.05;;;;;;;;;;5063414;28;20043;-85
2024/01/10 13:24:39;;;;;;;32.60;12.35;;;;;;;;;;5082889;28;20490;-82
2024/01/10 13:27:05;;;;;;;34.22;12.57;;;;;;;;;;5084714;28;20033;-83
2024/01/10 13:29:32;;;;;;;29.38;10.70;;;;;;;;;;5080282;28;20032;-81
2024/01/10 13:31:58;;;;;;;31.90;11.75;;;;;;;;;;5063578;28;20034;-81
2024/01/10 13:34:23;;;;;;;23.92;11.52;;;;;;;;;;5081158;28;20051;-81
2024/01/10 13:36:49;;;;;;;22.83;11.77;;;;;;;;;;5084831;28;20112;-80
2024/01/10 13:39:16;;;;;;;67.53;26.48;;;;;;;;;;5077751;28;20026;-81
2024/01/10 13:41:42;;;;;;;61.63;24.77;;;;;;;;;;5047515;28;20032;-81
2024/01/10 13:44:09;;;;;;;86.50;34.03;;;;;;;;;;5083608;28;20028;-82
2024/01/10 13:46:35;;;;;;;46.10;19.90;;;;;;;;;;5083601;28;20456;-80
2024/01/10 13:49:01;;;;;;;34.50;14.55;;;;;;;;;;5079978;28;20040;-81
2024/01/10 13:51:27;;;;;;;31.15;16.17;;;;;;;;;;5058732;28;20031;-80
2024/01/10 13:53:53;;;;;;;26.88;12.57;;;;;;;;;;5060810;28;20020;-80
2024/01/10 13:56:22;;;;;;;22.98;9.88;;;;;;;;;;5087380;28;20024;-81
2024/01/10 13:58:48;;;;;;;22.17;9.95;;;;;;;;;;5058443;28;20677;-82
2024/01/10 14:01:14;;;;;;;20.40;8.77;;;;;;;;;;5085253;28;20028;-82
2024/01/10 14:03:40;;;;;;;35.72;13.05;;;;;;;;;;5060323;28;20031;-81
2024/01/10 14:06:06;;;;;;;19.55;10.10;;;;;;;;;;5065639;28;20391;-83
2024/01/10 14:08:33;;;;;;;36.80;13.02;;;;;;;;;;5076412;28;20479;-83
2024/01/10 14:11:00;;;;;;;22.58;11.43;;;;;;;;;;5074884;28;20419;-82
2024/01/10 14:13:26;;;;;;;29.33;11.35;;;;;;;;;;5080631;28;20093;-81
2024/01/10 14:15:52;;;;;;;21.60;9.98;;;;;;;;;;5084046;28;20028;-80
2024/01/10 14:18:18;;;;;;;40.13;12.45;;;;;;;;;;5064531;28;20106;-83
2024/01/10 14:20:44;;;;;;;26.27;11.90;;;;;;;;;;5062572;28;20027;-83
2024/01/10 14:23:10;;;;;;;24.10;10.45;;;;;;;;;;5074333;28;20016;-82
2024/01/10 14:25:36;;;;;;;21.48;10.68;;;;;;;;;;5077556;28;20036;-81
2024/01/10 14:28:03;;;;;;;25.17;11.27;;;;;;;;;;5074687;28;20208;-82
2024/01/10 14:30:29;;;;;;;26.67;11.23;;;;;;;;;;5059981;28;20028;-83